Time;durP1;ratioP1;P1;durP2;ratioP2;P2;SDS_P1;SDS_P2;PMS_P1;PMS_P2;Temp;Humidity;BMP_temperature;BMP_pressure;BME280_temperature;BME280_humidity;BME280_pressure;Samples;Min_cycle;Max_cycle;Signal;HPM_P1;HPM_P2
2022/10/16 00:01:07;;;;;;;9.02;2.15;;;12.70;99.90;;;;;;6041802;23;20124;-87
2022/10/16 00:03:34;;;;;;;8.38;2.05;;;12.70;99.90;;;;;;6065063;23;20031;-85
2022/10/16 00:06:01;;;;;;;11.50;2.65;;;12.70;99.90;;;;;;6066265;23;20014;-86
2022/10/16 00:08:27;;;;;;;11.82;2.50;;;12.70;99.90;;;;;;6041632;23;20338;-86
2022/10/16 00:10:58;;;;;;;11.05;2.22;;;12.70;99.90;;;;;;6042603;23;20015;-86
2022/10/16 00:13:23;;;;;;;11.50;2.45;;;12.60;99.90;;;;;;6066517;23;20014;-86
2022/10/16 00:15:49;;;;;;;9.23;2.47;;;12.60;99.90;;;;;;6017744;23;20105;-85
2022/10/16 00:18:15;;;;;;;9.05;2.55;;;12.60;99.90;;;;;;6019218;23;20073;-86
2022/10/16 00:20:40;;;;;;;8.05;2.15;;;12.60;99.90;;;;;;6068332;23;20445;-86
2022/10/16 00:23:06;;;;;;;11.40;2.67;;;12.80;99.90;;;;;;6044274;23;20077;-86
2022/10/16 00:25:36;;;;;;;10.60;2.42;;;12.60;99.90;;;;;;6020385;23;20046;-86
2022/10/16 00:28:01;;;;;;;10.25;2.60;;;12.60;99.90;;;;;;6020912;23;20014;-86
2022/10/16 00:30:28;;;;;;;11.05;2.50;;;12.60;99.90;;;;;;5993863;23;20146;-86
2022/10/16 00:32:54;;;;;;;7.85;2.20;;;12.60;99.90;;;;;;6020504;23;20137;-87
2022/10/16 00:35:20;;;;;;;10.40;2.70;;;12.50;99.90;;;;;;6043868;23;20033;-86
2022/10/16 00:37:46;;;;;;;11.52;2.38;;;12.50;99.90;;;;;;6043432;23;20007;-86
2022/10/16 00:40:11;;;;;;;9.65;2.45;;;12.50;99.90;;;;;;6020274;23;20018;-86
2022/10/16 00:42:37;;;;;;;10.65;2.25;;;12.50;99.90;;;;;;6019000;23;20026;-87
2022/10/16 00:45:03;;;;;;;10.60;2.60;;;12.50;99.90;;;;;;6043902;23;20026;-87
2022/10/16 00:47:33;;;;;;;9.23;2.45;;;12.50;99.90;;;;;;6067334;23;20046;-86
2022/10/16 00:50:09;;;;;;;10.10;2.40;;;12.50;99.90;;;;;;6043750;23;20444;-87
2022/10/16 00:52:36;;;;;;;6.97;2.42;;;12.50;99.90;;;;;;6043078;23;20345;-86
2022/10/16 00:55:04;;;;;;;8.43;2.42;;;12.50;99.90;;;;;;6043933;23;20018;-86
2022/10/16 00:57:30;;;;;;;7.15;1.98;;;12.40;99.90;;;;;;6043369;23;20021;-86
2022/10/16 00:59:57;;;;;;;8.55;2.20;;;12.80;99.90;;;;;;6067464;23;20022;-87
2022/10/16 01:02:23;;;;;;;11.45;2.53;;;12.40;99.90;;;;;;6018548;23;20046;-86
2022/10/16 01:04:53;;;;;;;11.32;2.38;;;12.40;99.90;;;;;;6043024;23;20030;-86
2022/10/16 01:07:43;;;;;;;8.90;2.10;;;12.40;99.90;;;;;;6043811;23;20396;-86
2022/10/16 01:10:21;;;;;;;10.75;2.70;;;12.40;99.90;;;;;;6042956;23;20132;-88
2022/10/16 01:12:51;;;;;;;8.95;2.15;;;12.40;99.90;;;;;;6042636;23;20098;-86
2022/10/16 01:15:22;;;;;;;8.35;2.08;;;12.40;99.90;;;;;;6043946;23;20019;-86
2022/10/16 01:18:07;;;;;;;6.53;2.00;;;12.40;99.90;;;;;;6042031;23;20017;-87
2022/10/16 01:20:39;;;;;;;11.38;2.67;;;12.50;99.90;;;;;;6044212;23;20093;-86
2022/10/16 01:23:26;;;;;;;7.22;2.00;;;12.50;99.90;;;;;;6043336;23;20106;-86
2022/10/16 01:26:03;;;;;;;8.45;2.10;;;12.50;99.90;;;;;;6043927;23;20018;-85
2022/10/16 01:28:38;;;;;;;7.40;2.05;;;12.50;99.90;;;;;;6065776;23;20022;-87
2022/10/16 01:31:04;;;;;;;11.32;2.10;;;12.50;99.90;;;;;;6043411;23;20018;-86
2022/10/16 01:33:45;;;;;;;9.25;2.00;;;12.50;99.90;;;;;;6042772;23;20057;-87
2022/10/16 01:36:15;;;;;;;8.05;1.88;;;12.50;99.90;;;;;;6044151;23;20017;-87
2022/10/16 01:38:43;;;;;;;6.53;1.70;;;12.50;99.90;;;;;;6042862;23;20185;-87
2022/10/16 01:41:11;;;;;;;7.43;1.88;;;12.50;99.90;;;;;;6067075;23;20018;-86
2022/10/16 01:43:43;;;;;;;6.28;1.73;;;12.50;99.90;;;;;;6043074;23;20023;-87
2022/10/16 01:46:10;;;;;;;8.63;1.97;;;12.50;99.90;;;;;;6042486;23;20019;-86
2022/10/16 01:48:36;;;;;;;7.35;2.00;;;12.60;99.90;;;;;;6043107;23;20270;-86
2022/10/16 01:51:14;;;;;;;8.18;1.70;;;12.60;99.90;;;;;;6042946;23;20348;-87
2022/10/16 01:53:42;;;;;;;7.03;1.88;;;12.60;99.90;;;;;;6043228;23;20018;-86
2022/10/16 01:56:11;;;;;;;7.03;1.80;;;12.60;99.90;;;;;;6065821;23;20010;-85
2022/10/16 01:58:47;;;;;;;8.57;2.00;;;12.60;99.90;;;;;;6066498;23;20026;-87
2022/10/16 02:01:15;;;;;;;7.20;1.95;;;12.70;99.90;;;;;;6043127;23;20022;-86
2022/10/16 02:03:43;;;;;;;8.50;2.08;;;12.70;99.90;;;;;;6042527;23;20018;-88
2022/10/16 02:06:08;;;;;;;7.55;1.83;;;12.70;99.90;;;;;;6042971;23;20022;-87
2022/10/16 02:08:35;;;;;;;11.38;2.10;;;12.70;99.90;;;;;;6042434;23;20021;-86
2022/10/16 02:11:02;;;;;;;6.65;1.77;;;12.70;99.90;;;;;;6066645;23;20461;-87
2022/10/16 02:13:33;;;;;;;6.05;2.00;;;12.70;99.90;;;;;;6043059;23;20326;-87
2022/10/16 02:15:59;;;;;;;9.23;2.08;;;12.70;99.90;;;;;;6042956;23;20117;-87
2022/10/16 02:18:28;;;;;;;8.35;2.78;;;12.70;99.90;;;;;;6066826;23;20050;-87
2022/10/16 02:21:09;;;;;;;9.13;1.75;;;12.70;99.90;;;;;;6066206;23;20022;-86
2022/10/16 02:23:54;;;;;;;9.35;1.90;;;12.70;99.90;;;;;;6042896;23;20456;-87
2022/10/16 02:26:40;;;;;;;7.85;2.00;;;12.70;99.90;;;;;;6043075;23;20034;-86
2022/10/16 02:29:10;;;;;;;8.93;1.83;;;12.70;99.90;;;;;;6066027;23;20101;-87
2022/10/16 02:31:43;;;;;;;8.18;2.15;;;12.70;99.90;;;;;;6042541;23;20006;-86
2022/10/16 02:34:11;;;;;;;9.40;2.00;;;12.70;99.90;;;;;;6042690;23;20097;-87
2022/10/16 02:36:39;;;;;;;9.23;2.30;;;12.70;99.90;;;;;;6019783;23;20006;-87
2022/10/16 02:39:05;;;;;;;9.55;2.30;;;12.70;99.90;;;;;;6042552;23;20018;-87
2022/10/16 02:41:32;;;;;;;8.45;2.10;;;12.70;99.90;;;;;;6018606;23;20026;-86
2022/10/16 02:43:58;;;;;;;8.50;1.98;;;12.70;99.90;;;;;;6042533;23;20110;-87
2022/10/16 02:46:23;;;;;;;8.50;2.20;;;12.70;99.90;;;;;;6067065;23;20018;-87
2022/10/16 02:48:49;;;;;;;10.77;2.30;;;12.70;99.90;;;;;;6041114;23;20014;-87
2022/10/16 02:51:15;;;;;;;8.02;1.90;;;12.70;99.90;;;;;;6018797;23;20014;-87
2022/10/16 02:53:40;;;;;;;8.82;2.10;;;12.70;99.90;;;;;;6019208;23;20015;-87
2022/10/16 02:56:06;;;;;;;7.18;1.90;;;12.70;99.90;;;;;;6042617;23;20017;-86
2022/10/16 02:58:32;;;;;;;6.10;1.75;;;12.70;99.90;;;;;;6040454;23;20022;-86
2022/10/16 03:00:58;;;;;;;8.68;2.20;;;12.80;99.90;;;;;;6019601;23;20029;-87
2022/10/16 03:03:23;;;;;;;8.88;2.00;;;13.10;99.90;;;;;;6018830;23;20627;-86
2022/10/16 03:05:49;;;;;;;7.28;2.00;;;12.80;99.90;;;;;;6066845;23;20014;-86
2022/10/16 03:08:15;;;;;;;7.95;2.17;;;12.80;99.90;;;;;;6042742;23;20021;-87
2022/10/16 03:10:41;;;;;;;8.73;1.90;;;12.80;99.90;;;;;;6064227;23;20014;-87
2022/10/16 03:13:06;;;;;;;6.18;1.98;;;12.80;99.90;;;;;;6042630;23;20120;-87
2022/10/16 03:15:32;;;;;;;5.93;1.70;;;12.80;99.90;;;;;;6019524;23;20007;-86
2022/10/16 03:17:58;;;;;;;9.13;1.90;;;12.80;99.90;;;;;;6066548;23;20014;-84
2022/10/16 03:20:25;;;;;;;7.22;1.85;;;12.80;99.90;;;;;;6018620;23;20018;-88
2022/10/16 03:22:51;;;;;;;7.65;2.13;;;12.90;99.90;;;;;;6041337;23;20085;-86
2022/10/16 03:25:16;;;;;;;6.90;1.95;;;12.80;99.90;;;;;;6042745;23;20045;-86
2022/10/16 03:27:42;;;;;;;7.22;2.00;;;12.80;99.90;;;;;;6019662;23;20089;-86
2022/10/16 03:30:08;;;;;;;10.75;2.10;;;12.80;99.90;;;;;;6041822;23;20121;-85
2022/10/16 03:32:34;;;;;;;8.63;2.42;;;12.80;99.90;;;;;;6019137;23;20014;-87
2022/10/16 03:35:00;;;;;;;7.25;1.95;;;12.80;99.90;;;;;;6066326;23;20069;-86
2022/10/16 03:37:26;;;;;;;8.23;2.35;;;12.80;99.90;;;;;;6042391;23;20460;-86
2022/10/16 03:39:52;;;;;;;8.15;2.10;;;12.80;99.90;;;;;;6042605;23;20025;-87
2022/10/16 03:42:18;;;;;;;5.93;1.92;;;12.80;99.90;;;;;;6040465;23;20065;-87
2022/10/16 03:44:44;;;;;;;7.55;2.15;;;12.80;99.90;;;;;;6042253;23;20010;-86
2022/10/16 03:47:09;;;;;;;9.10;2.00;;;12.80;99.90;;;;;;6043231;23;20015;-86
2022/10/16 03:49:35;;;;;;;8.60;1.85;;;12.80;99.90;;;;;;6041570;23;20495;-87
2022/10/16 03:52:01;;;;;;;10.95;2.30;;;12.80;99.90;;;;;;6042570;23;20398;-86
2022/10/16 03:54:26;;;;;;;9.23;2.40;;;12.80;99.90;;;;;;6044193;23;20467;-86
2022/10/16 03:56:52;;;;;;;7.07;2.00;;;12.80;99.90;;;;;;6020712;23;20441;-86
2022/10/16 03:59:18;;;;;;;13.55;2.22;;;12.80;99.90;;;;;;6020725;23;20042;-86
2022/10/16 04:01:43;;;;;;;8.20;1.90;;;12.80;99.90;;;;;;6067688;23;20030;-86
2022/10/16 04:04:09;;;;;;;6.07;2.10;;;12.80;99.90;;;;;;6066581;23;20018;-87
2022/10/16 04:06:35;;;;;;;7.20;2.10;;;12.80;99.90;;;;;;6019958;23;20041;-86
2022/10/16 04:09:00;;;;;;;7.72;2.13;;;12.80;99.90;;;;;;6067996;23;20456;-87
2022/10/16 04:11:26;;;;;;;6.85;2.10;;;12.80;99.90;;;;;;6020290;23;20464;-87
2022/10/16 04:13:51;;;;;;;6.82;2.25;;;12.70;99.90;;;;;;6043346;23;20568;-86
2022/10/16 04:16:17;;;;;;;8.60;2.33;;;12.70;99.90;;;;;;6068163;23;20018;-87
2022/10/16 04:18:43;;;;;;;8.98;2.10;;;12.70;99.90;;;;;;6043844;23;20018;-86
2022/10/16 04:21:09;;;;;;;7.85;2.28;;;12.70;99.90;;;;;;6043365;23;20060;-86
2022/10/16 04:23:34;;;;;;;8.07;2.10;;;12.70;99.90;;;;;;6043085;23;20022;-87
2022/10/16 04:26:00;;;;;;;7.82;2.10;;;12.70;99.90;;;;;;6068397;23;20050;-86
2022/10/16 04:28:26;;;;;;;5.68;2.00;;;12.60;99.90;;;;;;6043488;23;20456;-86
2022/10/16 04:30:52;;;;;;;8.20;2.15;;;12.60;99.90;;;;;;6043969;23;20014;-87
2022/10/16 04:33:18;;;;;;;5.80;2.08;;;12.60;99.90;;;;;;6043080;23;20021;-87
2022/10/16 04:35:43;;;;;;;7.40;2.22;;;12.60;99.90;;;;;;6021226;23;20158;-87
2022/10/16 04:38:09;;;;;;;7.13;2.08;;;12.60;99.90;;;;;;6067060;23;20014;-86
2022/10/16 04:40:37;;;;;;;8.02;2.13;;;12.80;99.90;;;;;;6020012;23;20523;-86
2022/10/16 04:43:04;;;;;;;7.60;2.00;;;12.70;99.90;;;;;;6020960;23;20070;-86
2022/10/16 04:45:30;;;;;;;7.30;2.08;;;12.70;99.90;;;;;;6040713;23;20057;-87
2022/10/16 04:47:59;;;;;;;5.45;1.90;;;12.70;99.90;;;;;;6067210;23;20014;-86
2022/10/16 04:50:25;;;;;;;9.55;2.17;;;12.70;99.90;;;;;;6044110;23;20341;-86
2022/10/16 04:52:50;;;;;;;7.18;2.22;;;13.40;99.90;;;;;;6044163;23;20050;-87
2022/10/16 04:55:16;;;;;;;8.30;2.22;;;12.70;99.90;;;;;;6018850;23;20010;-86
2022/10/16 04:57:42;;;;;;;8.50;2.10;;;12.70;99.90;;;;;;6066896;23;20018;-85
2022/10/16 05:00:08;;;;;;;7.80;2.25;;;12.70;99.90;;;;;;6043438;23;20157;-87
2022/10/16 05:02:34;;;;;;;5.38;1.77;;;12.80;99.90;;;;;;6043916;23;20022;-86
2022/10/16 05:05:00;;;;;;;6.90;2.10;;;12.80;99.90;;;;;;6042879;23;20019;-86
2022/10/16 05:07:25;;;;;;;7.68;2.33;;;12.80;99.90;;;;;;6066519;23;20033;-88
2022/10/16 05:09:51;;;;;;;8.98;2.13;;;12.80;99.90;;;;;;6019497;23;20010;-87
2022/10/16 05:12:17;;;;;;;8.20;2.08;;;12.80;99.90;;;;;;5996965;23;20046;-87
2022/10/16 05:14:42;;;;;;;7.07;2.17;;;12.80;99.90;;;;;;6043850;23;20053;-86
2022/10/16 05:17:08;;;;;;;9.40;2.22;;;12.80;99.90;;;;;;6020027;23;20102;-87
2022/10/16 05:19:34;;;;;;;7.32;2.15;;;12.80;99.90;;;;;;6065675;23;20025;-87
2022/10/16 05:21:59;;;;;;;7.18;2.42;;;12.80;99.90;;;;;;6044500;23;20014;-87
2022/10/16 05:24:26;;;;;;;8.95;2.30;;;12.80;99.90;;;;;;6019523;23;20044;-88
2022/10/16 05:26:51;;;;;;;6.40;2.00;;;12.90;99.90;;;;;;6067274;23;20024;-87
2022/10/16 05:29:17;;;;;;;7.72;2.45;;;12.70;99.90;;;;;;6018934;23;20511;-87
2022/10/16 05:31:43;;;;;;;8.13;2.45;;;12.70;99.90;;;;;;6068133;23;20042;-87
2022/10/16 05:34:09;;;;;;;10.52;2.42;;;12.70;99.90;;;;;;6018437;23;20046;-87
2022/10/16 05:36:34;;;;;;;10.15;2.50;;;12.70;99.90;;;;;;5997139;23;20081;-87
2022/10/16 05:39:00;;;;;;;9.57;2.88;;;12.70;99.90;;;;;;6019695;23;20544;-87
2022/10/16 05:41:26;;;;;;;7.90;2.50;;;12.70;99.90;;;;;;6042763;23;20076;-86
2022/10/16 05:43:52;;;;;;;8.73;2.67;;;12.70;99.90;;;;;;6019193;23;20026;-88
2022/10/16 05:46:18;;;;;;;8.43;2.40;;;12.70;99.90;;;;;;6068018;23;20037;-86
2022/10/16 05:48:45;;;;;;;9.13;2.40;;;12.70;99.90;;;;;;6066814;23;20098;-87
2022/10/16 05:51:13;;;;;;;9.07;2.53;;;12.70;99.90;;;;;;6043279;23;20052;-87
2022/10/16 05:53:40;;;;;;;9.27;2.47;;;12.70;99.90;;;;;;6042477;23;20322;-88
2022/10/16 05:56:09;;;;;;;8.98;2.80;;;12.70;99.90;;;;;;6042014;23;20029;-87
2022/10/16 05:58:36;;;;;;;7.22;2.50;;;12.70;99.90;;;;;;6043258;23;20014;-87
2022/10/16 06:01:11;;;;;;;7.80;2.53;;;12.70;99.90;;;;;;6042913;23;20029;-85
2022/10/16 06:03:37;;;;;;;8.05;2.17;;;12.90;99.90;;;;;;6042670;23;20018;-86
2022/10/16 06:06:14;;;;;;;7.65;2.50;;;12.70;99.90;;;;;;6042483;23;20097;-87
2022/10/16 06:08:41;;;;;;;9.73;2.53;;;12.80;99.90;;;;;;6040995;23;20049;-87
2022/10/16 06:11:11;;;;;;;8.50;2.30;;;12.80;99.90;;;;;;6066804;23;20322;-87
2022/10/16 06:13:37;;;;;;;7.47;2.65;;;12.80;99.90;;;;;;6042218;23;20464;-86
2022/10/16 06:16:04;;;;;;;9.10;2.83;;;12.80;99.90;;;;;;6064386;23;20054;-87
2022/10/16 06:18:30;;;;;;;7.32;2.58;;;12.80;99.90;;;;;;6040228;23;20046;-86
2022/10/16 06:20:56;;;;;;;7.45;2.50;;;12.80;99.90;;;;;;6067410;23;20014;-87
2022/10/16 06:23:22;;;;;;;8.73;2.67;;;12.80;99.90;;;;;;6041384;23;20025;-86
2022/10/16 06:25:48;;;;;;;8.63;2.63;;;12.80;99.90;;;;;;6043573;23;20046;-86
2022/10/16 06:28:15;;;;;;;6.57;2.28;;;12.80;99.90;;;;;;6041424;23;20038;-87
2022/10/16 06:30:42;;;;;;;9.13;2.70;;;12.80;99.90;;;;;;6042943;23;20026;-89
2022/10/16 06:33:08;;;;;;;7.45;2.60;;;12.80;99.90;;;;;;6043856;23;20014;-86
2022/10/16 06:35:34;;;;;;;8.52;2.65;;;12.90;99.90;;;;;;6043625;23;20018;-88
2022/10/16 06:37:59;;;;;;;7.50;2.50;;;12.90;99.90;;;;;;6042644;23;20019;-87
2022/10/16 06:40:25;;;;;;;9.80;2.60;;;12.90;99.90;;;;;;6019079;23;20026;-87
2022/10/16 06:42:51;;;;;;;8.75;2.78;;;13.00;99.90;;;;;;6067704;23;20022;-85
2022/10/16 06:45:17;;;;;;;9.25;2.70;;;13.00;99.90;;;;;;6066160;23;20424;-86
2022/10/16 06:47:43;;;;;;;7.20;2.50;;;13.00;99.90;;;;;;6020631;23;20026;-87
2022/10/16 06:50:09;;;;;;;9.55;2.72;;;13.00;99.90;;;;;;6042989;23;20019;-86
2022/10/16 06:52:34;;;;;;;10.40;2.42;;;13.10;99.90;;;;;;6040832;23;20011;-86
2022/10/16 06:55:00;;;;;;;7.90;2.53;;;13.10;99.90;;;;;;6043547;23;20037;-87
2022/10/16 06:57:26;;;;;;;9.25;2.65;;;13.10;99.90;;;;;;6043160;23;20011;-86
2022/10/16 06:59:51;;;;;;;8.77;2.85;;;13.20;99.90;;;;;;6017128;23;20022;-87
2022/10/16 07:02:17;;;;;;;9.55;2.83;;;13.30;99.90;;;;;;6041546;23;20025;-87
2022/10/16 07:04:43;;;;;;;11.63;2.63;;;13.30;99.90;;;;;;6043275;23;20018;-86
2022/10/16 07:07:08;;;;;;;10.48;2.70;;;13.30;99.90;;;;;;6017609;23;20090;-86
2022/10/16 07:09:34;;;;;;;9.07;2.65;;;13.30;99.90;;;;;;6018310;23;20022;-86
2022/10/16 07:12:00;;;;;;;11.82;3.47;;;13.40;99.90;;;;;;6017622;23;20404;-86
2022/10/16 07:14:25;;;;;;;8.90;2.50;;;13.40;99.90;;;;;;6019519;23;20010;-86
2022/10/16 07:16:51;;;;;;;8.18;2.53;;;13.30;99.90;;;;;;6042494;23;20146;-87
2022/10/16 07:19:17;;;;;;;8.18;2.30;;;13.30;99.90;;;;;;6018662;23;20351;-87
2022/10/16 07:21:44;;;;;;;10.23;2.60;;;13.30;99.90;;;;;;6042119;23;20412;-86
2022/10/16 07:24:15;;;;;;;9.70;2.35;;;13.30;99.90;;;;;;6042315;23;20014;-86
2022/10/16 07:26:42;;;;;;;7.68;2.38;;;13.40;99.90;;;;;;6042466;23;20077;-86
2022/10/16 07:29:16;;;;;;;8.07;2.20;;;13.40;99.90;;;;;;6042109;23;20449;-87
2022/10/16 07:31:43;;;;;;;8.93;2.50;;;13.40;99.90;;;;;;6041512;23;20503;-89
2022/10/16 07:34:10;;;;;;;8.75;2.80;;;13.40;99.90;;;;;;6041225;23;20065;-87
2022/10/16 07:36:36;;;;;;;7.78;2.40;;;13.40;99.90;;;;;;6039879;23;20010;-87
2022/10/16 07:39:02;;;;;;;6.80;2.10;;;13.40;99.90;;;;;;6019380;23;20014;-87
2022/10/16 07:41:28;;;;;;;9.18;2.30;;;13.40;99.90;;;;;;6042710;23;20074;-87
2022/10/16 07:43:54;;;;;;;8.13;2.80;;;13.40;99.90;;;;;;6040686;23;20026;-87
2022/10/16 07:46:22;;;;;;;9.77;2.78;;;13.40;99.90;;;;;;6040458;23;20045;-87
2022/10/16 07:48:48;;;;;;;8.43;2.17;;;13.40;99.90;;;;;;6065668;23;20393;-90
2022/10/16 07:51:16;;;;;;;8.38;2.42;;;13.40;99.90;;;;;;6040623;23;20022;-87
2022/10/16 07:53:42;;;;;;;8.45;2.45;;;13.40;99.90;;;;;;6039166;23;20068;-87
2022/10/16 07:56:08;;;;;;;8.77;2.45;;;13.40;99.90;;;;;;6040275;23;20035;-86
2022/10/16 07:58:36;;;;;;;8.75;2.75;;;13.40;99.90;;;;;;6039129;23;20019;-87
2022/10/16 08:01:11;;;;;;;8.90;2.50;;;13.50;99.90;;;;;;6042162;23;20101;-88
2022/10/16 08:03:37;;;;;;;8.90;2.15;;;13.60;99.90;;;;;;6042230;23;20070;-88
2022/10/16 08:06:03;;;;;;;8.23;2.50;;;13.70;99.90;;;;;;6039755;23;20460;-87
2022/10/16 08:08:30;;;;;;;9.30;2.38;;;13.70;99.90;;;;;;6043280;23;20053;-87
2022/10/16 08:10:56;;;;;;;7.82;2.38;;;13.70;99.90;;;;;;6066003;23;20053;-87
2022/10/16 08:13:22;;;;;;;9.05;2.40;;;13.80;99.90;;;;;;6038008;23;20010;-86
2022/10/16 08:15:48;;;;;;;7.13;2.35;;;13.90;99.90;;;;;;6041616;23;20340;-86
2022/10/16 08:18:14;;;;;;;8.98;2.25;;;14.00;99.90;;;;;;6041286;23;20090;-86
2022/10/16 08:20:41;;;;;;;8.00;2.53;;;14.10;99.90;;;;;;6041263;23;20352;-87
2022/10/16 08:23:08;;;;;;;7.68;2.30;;;14.00;99.90;;;;;;6038276;23;20014;-86
2022/10/16 08:25:36;;;;;;;7.15;2.40;;;14.10;99.90;;;;;;6039599;23;20018;-86
2022/10/16 08:28:05;;;;;;;9.00;2.53;;;14.10;99.90;;;;;;6041406;23;20513;-88
2022/10/16 08:30:31;;;;;;;7.25;2.20;;;14.20;99.90;;;;;;6040297;23;20303;-85
2022/10/16 08:32:57;;;;;;;7.57;2.70;;;14.20;99.90;;;;;;6041424;23;20262;-87
2022/10/16 08:35:23;;;;;;;10.25;2.22;;;14.30;99.90;;;;;;6020164;23;20223;-86
2022/10/16 08:37:52;;;;;;;8.65;2.00;;;14.30;99.90;;;;;;6040343;23;20062;-87
2022/10/16 08:40:26;;;;;;;8.07;2.20;;;14.40;99.90;;;;;;6016461;23;20018;-87
2022/10/16 08:43:13;;;;;;;8.13;2.20;;;14.50;99.90;;;;;;6038611;23;20026;-86
2022/10/16 08:45:48;;;;;;;8.80;2.40;;;14.50;99.90;;;;;;6041621;23;20026;-87
2022/10/16 08:48:25;;;;;;;8.55;2.00;;;15.20;99.90;;;;;;6042519;23;20022;-86
2022/10/16 08:50:53;;;;;;;5.75;1.75;;;14.60;99.90;;;;;;6042657;23;20024;-87
2022/10/16 08:53:31;;;;;;;6.50;1.92;;;14.60;99.90;;;;;;6042488;23;20054;-86
2022/10/16 08:55:58;;;;;;;6.93;2.10;;;14.70;99.90;;;;;;6044619;23;20021;-86
2022/10/16 08:58:29;;;;;;;8.63;2.03;;;14.70;99.90;;;;;;6042500;23;20050;-86
2022/10/16 09:00:58;;;;;;;6.18;1.58;;;14.80;99.90;;;;;;6043666;23;20022;-85
2022/10/16 09:03:40;;;;;;;9.57;2.17;;;14.80;99.90;;;;;;6043898;23;20058;-86
2022/10/16 09:06:38;;;;;;;7.82;1.77;;;14.80;99.90;;;;;;6044252;23;20492;-87
2022/10/16 09:09:28;;;;;;;9.07;2.55;;;14.90;99.90;;;;;;6015908;23;20047;-84
2022/10/16 09:12:15;;;;;;;8.52;1.70;;;15.00;99.90;;;;;;6068003;23;20049;-86
2022/10/16 09:15:21;;;;;;;9.93;2.00;;;15.20;99.90;;;;;;6043981;23;20352;-86
2022/10/16 09:17:49;;;;;;;8.25;1.80;;;15.10;99.90;;;;;;6042725;23;20014;-86
2022/10/16 09:21:00;;;;;;;8.77;1.92;;;15.20;99.90;;;;;;6043550;23;20506;-86
2022/10/16 09:23:30;;;;;;;6.40;1.80;;;15.30;99.90;;;;;;5975087;24;20051;-87
2022/10/16 09:25:58;;;;;;;5.30;1.55;;;15.40;99.90;;;;;;5985543;23;20019;-85
2022/10/16 09:28:24;;;;;;;8.63;2.03;;;15.60;99.90;;;;;;6067411;23;20018;-86
2022/10/16 09:30:50;;;;;;;7.40;1.85;;;15.70;99.90;;;;;;6067574;23;20043;-86
2022/10/16 09:33:23;;;;;;;7.03;1.90;;;15.60;99.90;;;;;;6043789;23;20011;-86
2022/10/16 09:35:52;;;;;;;7.50;2.10;;;15.70;99.90;;;;;;6067789;23;20025;-85
2022/10/16 09:38:22;;;;;;;10.32;2.00;;;15.80;99.90;;;;;;6067244;23;20018;-84
2022/10/16 09:40:48;;;;;;;8.10;1.92;;;15.70;99.90;;;;;;6043923;23;20377;-84
2022/10/16 09:43:20;;;;;;;8.93;1.92;;;15.80;99.90;;;;;;6067075;23;20045;-83
2022/10/16 09:46:04;;;;;;;9.95;2.45;;;15.80;99.90;;;;;;6043731;23;20075;-84
2022/10/16 09:48:33;;;;;;;11.15;2.53;;;15.80;99.90;;;;;;6043363;23;20014;-85
2022/10/16 09:51:02;;;;;;;10.18;2.38;;;15.70;99.90;;;;;;6043173;23;20010;-84
2022/10/16 09:53:39;;;;;;;12.30;2.78;;;15.70;99.90;;;;;;6043030;23;20018;-84
2022/10/16 09:56:06;;;;;;;10.05;2.25;;;15.50;99.90;;;;;;6043244;23;20048;-84
2022/10/16 09:58:33;;;;;;;13.40;2.95;;;15.50;99.90;;;;;;6043096;23;20021;-85
2022/10/16 10:00:59;;;;;;;11.85;2.17;;;15.60;99.90;;;;;;6067520;23;20017;-84
2022/10/16 10:03:34;;;;;;;10.40;2.08;;;15.60;99.90;;;;;;6042856;23;20354;-85
2022/10/16 10:06:06;;;;;;;9.50;2.35;;;15.60;99.90;;;;;;6042756;23;20385;-83
2022/10/16 10:08:32;;;;;;;12.02;2.17;;;15.60;99.90;;;;;;6065058;23;20015;-85
2022/10/16 10:10:58;;;;;;;12.10;2.30;;;15.60;99.90;;;;;;6065915;23;20099;-84
2022/10/16 10:13:26;;;;;;;10.13;2.03;;;15.70;99.90;;;;;;6017797;23;20010;-85
2022/10/16 10:15:53;;;;;;;10.27;2.20;;;15.80;99.90;;;;;;6063257;23;20493;-84
2022/10/16 10:18:22;;;;;;;12.43;2.80;;;15.90;99.90;;;;;;6018326;23;20019;-86
2022/10/16 10:21:01;;;;;;;13.63;3.22;;;16.00;99.90;;;;;;6040918;23;20010;-84
2022/10/16 10:23:28;;;;;;;10.95;2.47;;;16.10;99.90;;;;;;6042101;23;20021;-84
2022/10/16 10:26:09;;;;;;;11.32;2.63;;;16.20;99.90;;;;;;6043504;23;20015;-85
2022/10/16 10:29:01;;;;;;;14.07;2.50;;;16.20;99.90;;;;;;6042349;23;20028;-85
2022/10/16 10:31:59;;;;;;;12.30;2.53;;;16.40;99.90;;;;;;6042741;23;20018;-85
2022/10/16 10:34:43;;;;;;;10.60;2.33;;;16.40;99.90;;;;;;5965669;23;20017;-84
2022/10/16 10:37:27;;;;;;;12.25;2.67;;;16.30;99.90;;;;;;6066390;23;20018;-85
2022/10/16 10:40:45;;;;;;;11.45;2.65;;;16.30;99.90;;;;;;6063078;23;20524;-85
2022/10/16 10:43:26;;;;;;;9.75;2.10;;;16.30;99.90;;;;;;5954393;23;20037;-84
2022/10/16 10:46:02;;;;;;;11.90;3.00;;;16.40;99.90;;;;;;6042779;23;20023;-84
2022/10/16 10:48:48;;;;;;;10.88;2.38;;;16.50;99.90;;;;;;6042062;23;20018;-85
2022/10/16 10:51:25;;;;;;;11.70;2.58;;;16.60;99.90;;;;;;6065997;23;20021;-86
2022/10/16 10:54:39;;;;;;;16.45;3.42;;;16.60;99.90;;;;;;6041400;23;20014;-84
2022/10/16 10:57:19;;;;;;;11.80;2.90;;;16.60;99.90;;;;;;6060527;23;20467;-84
2022/10/16 11:00:19;;;;;;;13.93;2.70;;;16.60;99.90;;;;;;6041583;23;20443;-85
2022/10/16 11:02:58;;;;;;;10.90;2.00;;;16.60;99.90;;;;;;6042426;23;20290;-84
2022/10/16 11:05:43;;;;;;;12.02;2.83;;;16.60;99.90;;;;;;6042707;23;20077;-85
2022/10/16 11:09:17;;;;;;;10.63;2.53;;;16.50;99.90;;;;;;6041235;23;20019;-85
2022/10/16 11:11:58;;;;;;;11.55;2.28;;;16.50;99.90;;;;;;5869840;23;20016;-85
2022/10/16 11:14:34;;;;;;;10.02;2.05;;;16.50;99.90;;;;;;6065357;23;20021;-85
2022/10/16 11:17:27;;;;;;;10.57;2.38;;;16.60;99.90;;;;;;6042890;23;20011;-86
2022/10/16 11:20:13;;;;;;;13.25;2.35;;;16.50;99.90;;;;;;6064028;23;20014;-84
2022/10/16 11:22:48;;;;;;;13.13;2.45;;;16.50;99.90;;;;;;6042543;23;20397;-86
2022/10/16 11:25:25;;;;;;;11.50;2.63;;;16.60;99.90;;;;;;6042622;23;20356;-85
2022/10/16 11:28:14;;;;;;;13.77;2.47;;;16.60;99.90;;;;;;6065796;23;20511;-84
2022/10/16 11:30:56;;;;;;;12.38;2.50;;;16.70;99.90;;;;;;6066804;23;20018;-85
2022/10/16 11:33:33;;;;;;;8.50;1.98;;;16.70;99.90;;;;;;6063366;23;20381;-84
2022/10/16 11:36:23;;;;;;;10.93;2.70;;;16.70;99.90;;;;;;6039290;23;20049;-84
2022/10/16 11:39:18;;;;;;;13.18;2.30;;;16.80;99.90;;;;;;6042996;23;20018;-84
2022/10/16 11:42:09;;;;;;;10.77;2.35;;;16.80;99.90;;;;;;6066280;23;20026;-84
2022/10/16 11:44:44;;;;;;;14.10;2.53;;;16.80;99.90;;;;;;6065364;23;20018;-84
2022/10/16 11:47:23;;;;;;;14.07;2.20;;;16.80;99.90;;;;;;6064342;23;20500;-85
2022/10/16 11:49:52;;;;;;;13.25;2.42;;;16.80;99.90;;;;;;6042215;23;20166;-85
2022/10/16 11:52:36;;;;;;;10.82;2.20;;;16.80;99.90;;;;;;6041027;23;20022;-83
2022/10/16 11:55:13;;;;;;;12.38;2.30;;;16.80;99.90;;;;;;6042524;23;20022;-85
2022/10/16 11:57:45;;;;;;;10.85;2.00;;;16.70;99.90;;;;;;6041274;23;20016;-85
2022/10/16 12:00:43;;;;;;;11.07;2.50;;;16.80;99.90;;;;;;6042466;23;20023;-84
2022/10/16 12:03:20;;;;;;;10.15;2.00;;;16.80;99.90;;;;;;6042535;23;20089;-84
2022/10/16 12:06:07;;;;;;;14.02;2.97;;;16.80;99.90;;;;;;6065126;23;20019;-85
2022/10/16 12:08:35;;;;;;;9.82;2.00;;;16.80;99.90;;;;;;6040577;23;20018;-84
2022/10/16 12:11:33;;;;;;;10.20;2.13;;;16.90;99.90;;;;;;6066919;23;20018;-85
2022/10/16 12:14:11;;;;;;;10.98;2.38;;;16.90;99.90;;;;;;6042647;23;20011;-85
2022/10/16 12:16:55;;;;;;;14.55;2.70;;;16.90;99.90;;;;;;6044400;23;20086;-83
2022/10/16 12:19:25;;;;;;;13.60;2.47;;;17.00;99.90;;;;;;6067408;23;20014;-84
2022/10/16 12:21:54;;;;;;;10.88;2.35;;;17.10;99.90;;;;;;6042749;23;20235;-84
2022/10/16 12:24:32;;;;;;;12.43;2.00;;;17.10;99.90;;;;;;6043199;23;20077;-84
2022/10/16 12:26:57;;;;;;;9.55;2.40;;;17.20;99.90;;;;;;6044142;23;20022;-85
2022/10/16 12:29:32;;;;;;;14.18;2.70;;;17.20;99.90;;;;;;6062283;23;20030;-85
2022/10/16 12:31:58;;;;;;;12.73;2.85;;;17.70;99.90;;;;;;6067773;23;20049;-87
2022/10/16 12:34:32;;;;;;;12.38;2.20;;;17.30;99.90;;;;;;6043223;23;20018;-85
2022/10/16 12:37:29;;;;;;;14.75;2.33;;;17.30;99.90;;;;;;6043184;23;20136;-85
2022/10/16 12:39:56;;;;;;;11.48;2.08;;;17.30;99.90;;;;;;6017664;23;20022;-85
2022/10/16 12:42:29;;;;;;;13.15;2.42;;;17.30;99.90;;;;;;6043913;23;20026;-87
2022/10/16 12:44:55;;;;;;;12.98;2.42;;;17.20;99.90;;;;;;6044089;23;20022;-87
2022/10/16 12:47:23;;;;;;;11.95;2.78;;;17.00;99.90;;;;;;6043069;23;20325;-85
2022/10/16 12:49:53;;;;;;;11.65;2.20;;;16.90;99.90;;;;;;6041406;23;20010;-86
2022/10/16 12:52:36;;;;;;;11.80;2.47;;;16.80;99.90;;;;;;6043598;23;20014;-86
2022/10/16 12:55:03;;;;;;;12.38;2.20;;;16.70;99.90;;;;;;6067564;23;20081;-85
2022/10/16 12:57:34;;;;;;;13.60;2.35;;;16.60;99.90;;;;;;6043426;23;20049;-85
2022/10/16 13:00:03;;;;;;;13.25;2.70;;;16.50;99.90;;;;;;6066565;23;20448;-84
2022/10/16 13:02:47;;;;;;;12.55;2.42;;;16.40;99.90;;;;;;6042760;23;20085;-86